Time;durP1;ratioP1;P1;durP2;ratioP2;P2;SDS_P1;SDS_P2;PMS_P1;PMS_P2;Temp;Humidity;BMP_temperature;BMP_pressure;BME280_temperature;BME280_humidity;BME280_pressure;Samples;Min_cycle;Max_cycle;Signal;HPM_P1;HPM_P2
2023/06/07 00:00:15;;;;;;;2.78;2.50;;;13.00;99.90;;;;;;4973787;28;20058;-77
2023/06/07 00:03:51;;;;;;;;;;;;;;;;;;;;;
2023/06/07 00:07:03;;;;;;;4.18;2.88;;;13.00;99.90;;;;;;4926483;28;20456;-78
2023/06/07 00:10:43;;;;;;;;;;;;;;;;;;;;;
2023/06/07 00:17:28;;;;;;;2.63;2.42;;;12.90;99.90;;;;;;4912260;28;20046;-76
2023/06/07 00:20:47;;;;;;;;;;;;;;;;;;;;;
2023/06/07 00:23:59;;;;;;;2.80;2.60;;;12.70;99.90;;;;;;4971086;28;20467;-76
2023/06/07 00:26:58;;;;;;;4.05;2.80;;;12.40;99.90;;;;;;5009815;28;20033;-76
2023/06/07 00:33:27;;;;;;;2.90;2.65;;;12.20;99.90;;;;;;4856873;29;20088;-77
2023/06/07 00:43:27;;;;;;;2.80;2.60;;;11.70;99.90;;;;;;4778501;29;20553;-76
2023/06/07 00:50:28;;;;;;;4.30;3.00;;;11.90;99.90;;;;;;4834869;29;20127;-76
2023/06/07 00:53:04;;;;;;;2.67;2.47;;;11.90;99.90;;;;;;4836951;29;20102;-76
2023/06/07 00:56:02;;;;;;;3.55;3.25;;;11.90;99.90;;;;;;4827241;29;20050;-76
2023/06/07 01:02:20;;;;;;;2.80;2.60;;;11.70;99.90;;;;;;4867892;29;19912;-85
2023/06/07 01:09:13;;;;;;;;;;;;;;;;;;;;;
2023/06/07 01:18:28;;;;;;;3.13;2.92;;;11.90;99.90;;;;;;5098418;22;20134;-42
2023/06/07 01:20:57;;;;;;;3.30;2.95;;;11.90;99.90;;;;;;5081343;28;20043;-42
2023/06/07 01:23:59;;;;;;;2.88;2.67;;;11.60;99.90;;;;;;5416239;22;20060;-86
2023/06/07 01:27:10;;;;;;;2.95;2.75;;;11.60;99.90;;;;;;5083586;28;20108;-89
2023/06/07 01:29:37;;;;;;;2.63;2.42;;;11.30;99.90;;;;;;5067687;28;20028;-89
2023/06/07 01:32:12;;;;;;;2.55;2.35;;;11.10;99.90;;;;;;5092001;28;20048;-89
2023/06/07 01:34:45;;;;;;;2.63;2.42;;;11.10;99.90;;;;;;5097745;28;20035;-89
2023/06/07 01:37:11;;;;;;;2.80;2.60;;;11.30;99.90;;;;;;5091263;28;20094;-88
2023/06/07 01:39:41;;;;;;;3.95;3.00;;;11.30;99.90;;;;;;5091753;28;20039;-88
2023/06/07 01:42:10;;;;;;;3.28;2.92;;;11.30;99.90;;;;;;5096172;28;20039;-88
2023/06/07 01:44:43;;;;;;;3.10;2.90;;;11.20;99.90;;;;;;5074044;28;20032;-88
2023/06/07 01:47:24;;;;;;;2.88;2.67;;;11.10;99.90;;;;;;5080488;28;20051;-88
2023/06/07 01:49:50;;;;;;;2.90;2.70;;;11.20;99.90;;;;;;5055360;28;20032;-88
2023/06/07 01:52:19;;;;;;;2.65;2.45;;;11.10;99.90;;;;;;5089609;28;20078;-87
2023/06/07 01:54:54;;;;;;;2.70;2.50;;;11.20;99.90;;;;;;5095937;28;20042;-86
2023/06/07 01:58:10;;;;;;;2.58;2.38;;;11.20;99.90;;;;;;5081474;28;20036;-88
2023/06/07 02:00:55;;;;;;;2.65;2.50;;;11.30;99.90;;;;;;5049176;28;20058;-88
2023/06/07 02:03:38;;;;;;;2.72;2.53;;;11.30;99.90;;;;;;5100177;28;20035;-89
2023/06/07 02:06:08;;;;;;;3.15;2.85;;;11.30;99.90;;;;;;5091741;28;20028;-88
2023/06/07 02:08:43;;;;;;;2.75;2.55;;;11.10;99.90;;;;;;5094006;28;20455;-89
2023/06/07 02:11:22;;;;;;;;;;;;;;;;;;;;;
2023/06/07 02:14:04;;;;;;;2.70;2.50;;;11.00;99.90;;;;;;5099040;28;20099;-87
2023/06/07 02:16:37;;;;;;;2.88;2.67;;;10.80;99.90;;;;;;5073385;28;20032;-88
2023/06/07 02:19:07;;;;;;;2.72;2.53;;;10.70;99.90;;;;;;5094775;28;20036;-89
2023/06/07 02:21:42;;;;;;;3.15;2.95;;;10.70;99.90;;;;;;5094328;28;20039;-89
2023/06/07 02:24:25;;;;;;;2.80;2.60;;;10.40;99.90;;;;;;5080739;28;20055;-88
2023/06/07 02:27:00;;;;;;;3.05;2.75;;;10.30;99.90;;;;;;5096163;28;20020;-89
2023/06/07 02:29:32;;;;;;;2.88;2.67;;;10.40;99.90;;;;;;5095112;28;20032;-90
2023/06/07 02:32:07;;;;;;;2.70;2.50;;;10.50;99.90;;;;;;5095733;28;20439;-79
2023/06/07 02:34:47;;;;;;;3.83;2.70;;;10.50;99.90;;;;;;5092250;28;20032;-79
2023/06/07 02:37:18;;;;;;;2.60;2.40;;;10.60;99.90;;;;;;5080114;28;20506;-79
2023/06/07 02:39:47;;;;;;;2.80;2.60;;;10.70;99.90;;;;;;5094209;28;20117;-79
2023/06/07 02:42:16;;;;;;;3.28;2.97;;;10.80;99.90;;;;;;5068671;28;20032;-79
2023/06/07 02:44:55;;;;;;;;;;;;;;;;;;;;;
2023/06/07 02:47:30;;;;;;;3.33;3.03;;;10.90;99.90;;;;;;5088493;28;20104;-79
2023/06/07 02:49:57;;;;;;;2.90;2.60;;;10.80;99.90;;;;;;5095305;28;20050;-78
2023/06/07 02:52:26;;;;;;;3.17;2.78;;;10.60;99.90;;;;;;5091735;28;20062;-79
2023/06/07 02:55:01;;;;;;;5.13;3.00;;;10.50;99.90;;;;;;5089586;28;20028;-79
2023/06/07 02:57:27;;;;;;;4.00;2.90;;;10.50;99.90;;;;;;5072433;28;20040;-79
2023/06/07 02:59:56;;;;;;;2.80;2.60;;;10.30;99.90;;;;;;5091109;28;20028;-79
2023/06/07 03:02:25;;;;;;;3.38;3.08;;;9.90;99.90;;;;;;5056290;28;20048;-79
2023/06/07 03:04:54;;;;;;;3.58;2.65;;;9.70;99.90;;;;;;5088696;28;20026;-79
2023/06/07 03:07:20;;;;;;;3.47;2.75;;;9.50;99.90;;;;;;5092305;28;20028;-79
2023/06/07 03:09:47;;;;;;;3.20;2.90;;;9.60;99.90;;;;;;5095813;28;20066;-79
2023/06/07 03:12:13;;;;;;;2.85;2.65;;;9.70;99.90;;;;;;5078987;28;20097;-79
2023/06/07 03:14:42;;;;;;;3.55;3.25;;;9.80;99.90;;;;;;5076863;28;20028;-79
2023/06/07 03:17:11;;;;;;;3.75;3.35;;;9.80;99.90;;;;;;5099563;28;20028;-79
2023/06/07 03:19:37;;;;;;;3.08;2.80;;;9.60;99.90;;;;;;5094228;28;20028;-79
2023/06/07 03:22:06;;;;;;;3.45;2.85;;;9.70;99.90;;;;;;5094094;28;20499;-79
2023/06/07 03:24:39;;;;;;;4.13;3.00;;;9.80;99.90;;;;;;5060860;28;20059;-79
2023/06/07 03:27:06;;;;;;;3.72;2.60;;;10.00;99.90;;;;;;5073313;28;20483;-79
2023/06/07 03:29:32;;;;;;;3.25;2.88;;;10.10;99.90;;;;;;5088231;28;20647;-79
2023/06/07 03:31:58;;;;;;;3.20;2.90;;;10.10;99.90;;;;;;5062585;28;20551;-80
2023/06/07 03:34:32;;;;;;;3.60;3.00;;;10.20;99.90;;;;;;5084805;28;20036;-79
2023/06/07 03:36:59;;;;;;;4.03;2.90;;;10.20;99.90;;;;;;5091294;28;20032;-80
2023/06/07 03:40:30;;;;;;;4.57;2.92;;;10.30;99.90;;;;;;5079170;28;20028;-79
2023/06/07 03:42:58;;;;;;;3.30;3.00;;;10.10;99.90;;;;;;5084916;28;20092;-79
2023/06/07 03:45:47;;;;;;;3.22;2.92;;;9.90;99.90;;;;;;5097837;28;20032;-79
2023/06/07 03:48:16;;;;;;;2.85;2.65;;;9.90;99.90;;;;;;5084614;28;20051;-79
2023/06/07 03:50:45;;;;;;;2.92;2.63;;;9.90;99.90;;;;;;5089467;28;20028;-79
2023/06/07 03:53:23;;;;;;;3.55;2.70;;;10.00;99.90;;;;;;5075424;28;20113;-76
2023/06/07 03:55:49;;;;;;;3.22;2.92;;;10.10;99.90;;;;;;5086281;28;20032;-76
2023/06/07 03:58:18;;;;;;;3.13;2.92;;;9.80;99.90;;;;;;5088752;28;20684;-76
2023/06/07 04:00:45;;;;;;;3.30;3.00;;;9.70;99.90;;;;;;5073223;28;20036;-76
2023/06/07 04:03:13;;;;;;;3.65;3.20;;;9.70;99.90;;;;;;5092348;28;20028;-76
2023/06/07 04:05:38;;;;;;;3.28;3.00;;;9.90;99.90;;;;;;5077222;28;20057;-76
2023/06/07 04:08:06;;;;;;;3.20;2.90;;;9.90;99.90;;;;;;5091219;28;20028;-76
2023/06/07 04:10:32;;;;;;;5.43;3.03;;;10.10;99.90;;;;;;5091780;28;20054;-75
2023/06/07 04:12:58;;;;;;;4.28;3.17;;;10.20;99.90;;;;;;5077723;28;20028;-75
2023/06/07 04:15:26;;;;;;;3.35;3.00;;;10.10;99.90;;;;;;5089133;28;20057;-76
2023/06/07 04:17:52;;;;;;;;;;;10.20;99.90;;;;;;5073961;28;20032;-75
2023/06/07 04:20:18;;;;;;;3.35;3.15;;;10.30;99.90;;;;;;5092184;28;19976;-76
2023/06/07 04:22:43;;;;;;;3.75;3.17;;;10.40;99.90;;;;;;5076017;28;20078;-76
2023/06/07 04:25:10;;;;;;;4.00;3.60;;;10.50;99.90;;;;;;5079532;28;20032;-76
2023/06/07 04:27:38;;;;;;;5.18;3.38;;;10.50;99.90;;;;;;5091113;28;20554;-78
2023/06/07 04:30:05;;;;;;;4.20;3.50;;;10.60;99.90;;;;;;5072117;28;20028;-77
2023/06/07 04:32:33;;;;;;;4.13;3.72;;;10.70;99.90;;;;;;5092383;28;20068;-77
2023/06/07 04:34:59;;;;;;;4.32;3.33;;;10.70;99.90;;;;;;5095640;28;20032;-77
2023/06/07 04:37:25;;;;;;;5.40;3.63;;;10.80;99.90;;;;;;5077971;28;20050;-76
2023/06/07 04:39:51;;;;;;;3.90;3.47;;;11.00;99.90;;;;;;5093526;28;20127;-76
2023/06/07 04:42:17;;;;;;;3.70;3.40;;;11.10;99.90;;;;;;5072881;28;20028;-76
2023/06/07 04:44:44;;;;;;;5.40;3.97;;;11.30;99.90;;;;;;5094108;28;20036;-75
2023/06/07 04:47:10;;;;;;;5.15;3.45;;;11.40;99.90;;;;;;5096064;28;20034;-76
2023/06/07 04:49:38;;;;;;;4.63;3.72;;;11.40;99.90;;;;;;5090987;28;20036;-75
2023/06/07 04:52:05;;;;;;;3.80;3.50;;;11.50;99.90;;;;;;5089945;28;20460;-76
2023/06/07 04:54:32;;;;;;;4.05;3.40;;;11.70;99.90;;;;;;5073383;28;20032;-75
2023/06/07 04:56:58;;;;;;;4.88;3.72;;;11.80;99.90;;;;;;5085268;28;20035;-75
2023/06/07 04:59:25;;;;;;;4.57;3.55;;;11.80;99.90;;;;;;5086033;28;20039;-76
2023/06/07 05:01:51;;;;;;;3.75;3.45;;;12.00;99.90;;;;;;5087221;28;20112;-75
2023/06/07 05:04:18;;;;;;;4.03;3.63;;;12.10;99.90;;;;;;5087276;28;20890;-75
2023/06/07 05:06:44;;;;;;;4.22;3.83;;;12.10;99.90;;;;;;5092992;28;20029;-74
2023/06/07 05:09:10;;;;;;;4.18;3.78;;;12.10;99.90;;;;;;5086291;28;20481;-75
2023/06/07 05:11:37;;;;;;;3.88;3.55;;;12.20;99.90;;;;;;5087498;28;20020;-75
2023/06/07 05:14:06;;;;;;;4.22;3.78;;;12.30;99.90;;;;;;5085285;28;20056;-77
2023/06/07 05:16:32;;;;;;;5.13;3.60;;;12.40;99.90;;;;;;5087865;28;20039;-76
2023/06/07 05:18:58;;;;;;;7.63;4.10;;;12.40;99.90;;;;;;5088342;28;20108;-76
2023/06/07 05:21:37;;;;;;;7.65;4.40;;;12.50;99.90;;;;;;5091637;28;20049;-76
2023/06/07 05:24:28;;;;;;;;;;;;;;;;;;;;;
2023/06/07 05:26:58;;;;;;;4.38;3.97;;;12.80;99.90;;;;;;5078211;28;20041;-77
2023/06/07 05:36:56;;;;;;;5.60;4.63;;;13.20;99.90;;;;;;4996257;28;20057;-75
2023/06/07 05:40:12;;;;;;;;;;;;;;;;;;;;;
2023/06/07 05:43:42;;;;;;;6.05;5.20;;;13.70;99.90;;;;;;4893488;29;20052;-75
2023/06/07 05:46:16;;;;;;;7.22;6.10;;;13.80;99.90;;;;;;4917129;28;20035;-75
2023/06/07 05:57:08;;;;;;;;;;;;;;;;;;;;;
2023/06/07 06:04:15;;;;;;;;;;;;;;;;;;;;;
2023/06/07 06:10:14;;;;;;;9.27;7.75;;;14.90;99.90;;;;;;4712738;30;20051;-76
2023/06/07 06:12:44;;;;;;;10.50;8.55;;;15.00;99.90;;;;;;4838861;28;20036;-85
2023/06/07 06:15:10;;;;;;;9.13;7.75;;;15.00;99.90;;;;;;4978629;28;20546;-85
2023/06/07 06:17:47;;;;;;;10.57;8.73;;;15.10;99.90;;;;;;4982152;28;20047;-86
2023/06/07 06:20:24;;;;;;;9.65;8.50;;;15.40;99.90;;;;;;4977565;28;20042;-85
2023/06/07 06:22:56;;;;;;;10.30;9.30;;;15.50;99.90;;;;;;4977659;28;20131;-86
2023/06/07 06:25:25;;;;;;;9.00;8.10;;;15.40;99.90;;;;;;4962533;28;20045;-85
2023/06/07 06:27:51;;;;;;;11.10;8.18;;;15.60;99.90;;;;;;4966660;28;20039;-86
2023/06/07 06:30:20;;;;;;;11.82;9.10;;;15.60;99.90;;;;;;5095524;28;20020;-87
2023/06/07 06:32:49;;;;;;;10.85;8.73;;;15.70;99.90;;;;;;5089769;28;20103;-87
2023/06/07 06:35:17;;;;;;;10.18;8.13;;;15.80;99.90;;;;;;5091704;28;20031;-87
2023/06/07 06:37:46;;;;;;;10.57;8.98;;;15.90;99.90;;;;;;5075511;28;20040;-87
2023/06/07 06:40:16;;;;;;;8.88;7.97;;;16.10;99.90;;;;;;5093649;28;20368;-88
2023/06/07 06:42:42;;;;;;;8.25;7.25;;;16.10;99.90;;;;;;5090251;28;20082;-88
2023/06/07 06:45:08;;;;;;;8.70;7.80;;;16.20;99.90;;;;;;5089568;28;20012;-87
2023/06/07 06:47:36;;;;;;;10.82;7.43;;;16.40;99.90;;;;;;5084817;28;20020;-88
2023/06/07 06:50:01;;;;;;;9.88;8.05;;;16.50;99.90;;;;;;5097393;28;20032;-87
2023/06/07 06:52:27;;;;;;;10.05;8.40;;;16.60;99.90;;;;;;5099126;28;20043;-86
2023/06/07 06:54:52;;;;;;;7.80;7.00;;;16.70;99.90;;;;;;5099973;28;20028;-86
2023/06/07 06:57:18;;;;;;;8.32;7.53;;;16.70;99.90;;;;;;5096036;28;20039;-88
2023/06/07 06:59:44;;;;;;;7.78;6.97;;;16.80;99.90;;;;;;5089566;28;20025;-86
2023/06/07 07:02:12;;;;;;;9.07;7.75;;;17.00;99.90;;;;;;5094099;28;20126;-86
2023/06/07 07:04:37;;;;;;;8.07;7.00;;;17.00;99.90;;;;;;5079558;28;20035;-86
2023/06/07 07:07:03;;;;;;;7.78;6.97;;;17.20;99.90;;;;;;5095166;28;20024;-83
2023/06/07 07:09:30;;;;;;;8.32;7.47;;;17.40;99.90;;;;;;5099211;28;20094;-87
2023/06/07 07:11:55;;;;;;;7.53;6.82;;;17.60;99.90;;;;;;5078708;28;20046;-88
2023/06/07 07:14:21;;;;;;;9.10;7.03;;;17.70;99.90;;;;;;5095929;28;20036;-85
2023/06/07 07:16:47;;;;;;;8.63;7.65;;;17.90;99.90;;;;;;5099988;28;20022;-85
2023/06/07 07:19:12;;;;;;;9.27;7.18;;;18.00;99.90;;;;;;5094310;28;20607;-83
2023/06/07 07:21:39;;;;;;;9.55;7.32;;;17.90;99.90;;;;;;5077738;28;20025;-78
2023/06/07 07:24:05;;;;;;;8.00;7.03;;;17.90;99.90;;;;;;5087134;28;20048;-80
2023/06/07 07:26:31;;;;;;;9.35;7.82;;;18.10;99.90;;;;;;5090670;28;20068;-80
2023/06/07 07:28:57;;;;;;;8.40;7.47;;;18.30;99.90;;;;;;5092558;28;20100;-80
2023/06/07 07:31:22;;;;;;;7.63;6.13;;;18.30;99.90;;;;;;5099184;28;20051;-83
2023/06/07 07:33:48;;;;;;;6.30;5.70;;;18.30;99.90;;;;;;5093551;28;20033;-82
2023/06/07 07:36:15;;;;;;;6.85;5.88;;;18.50;99.90;;;;;;5093042;28;20123;-82
2023/06/07 07:38:40;;;;;;;8.38;6.18;;;18.60;99.90;;;;;;5099675;28;20039;-81
2023/06/07 07:41:06;;;;;;;7.43;6.57;;;18.60;99.90;;;;;;5098572;28;20081;-81
2023/06/07 07:43:32;;;;;;;10.15;6.50;;;18.80;99.90;;;;;;5087714;28;20460;-81
2023/06/07 07:45:58;;;;;;;10.00;5.68;;;18.80;99.90;;;;;;5092271;28;20090;-81
2023/06/07 07:48:24;;;;;;;6.32;5.40;;;18.60;99.90;;;;;;5088789;28;20111;-81
2023/06/07 07:50:49;;;;;;;5.65;5.05;;;18.50;99.90;;;;;;5095055;28;20032;-79
2023/06/07 07:53:15;;;;;;;5.10;4.60;;;18.70;99.90;;;;;;5089603;28;20056;-80
2023/06/07 07:55:41;;;;;;;5.80;4.80;;;19.00;99.90;;;;;;5082716;28;20039;-80
2023/06/07 07:58:07;;;;;;;8.18;6.22;;;19.00;99.90;;;;;;5099842;28;20104;-80
2023/06/07 08:00:33;;;;;;;6.30;5.70;;;19.20;99.90;;;;;;5097409;28;20016;-79
2023/06/07 08:02:59;;;;;;;6.57;5.35;;;19.00;99.90;;;;;;5103170;28;20092;-80
2023/06/07 08:05:27;;;;;;;6.47;5.32;;;18.90;99.90;;;;;;5093553;28;20031;-80
2023/06/07 08:07:53;;;;;;;;;;;19.00;99.90;;;;;;5096474;28;20039;-80
2023/06/07 08:10:18;;;;;;;5.80;4.15;;;19.20;99.90;;;;;;5099841;28;19972;-79
2023/06/07 08:12:44;;;;;;;5.07;3.88;;;19.10;99.90;;;;;;5101635;28;20074;-81
2023/06/07 08:15:10;;;;;;;3.92;3.10;;;19.20;99.90;;;;;;5078170;28;20034;-80
2023/06/07 08:17:36;;;;;;;3.95;3.55;;;19.60;99.90;;;;;;5100871;28;20036;-80
2023/06/07 08:20:04;;;;;;;3.90;3.50;;;19.60;99.90;;;;;;5100224;28;20028;-80
2023/06/07 08:22:30;;;;;;;4.13;3.70;;;19.70;99.90;;;;;;5081418;28;20036;-80
2023/06/07 08:24:55;;;;;;;4.63;4.22;;;20.00;99.90;;;;;;5099288;28;20040;-81
2023/06/07 08:27:21;;;;;;;6.65;5.03;;;20.10;99.90;;;;;;5101129;28;20036;-80
2023/06/07 08:29:47;;;;;;;4.40;4.00;;;20.20;99.90;;;;;;5100082;28;20028;-80
2023/06/07 08:32:13;;;;;;;4.50;4.10;;;20.00;99.90;;;;;;5097818;28;20042;-75
2023/06/07 08:34:41;;;;;;;4.25;3.85;;;20.20;99.90;;;;;;5078774;28;20799;-74
2023/06/07 08:37:07;;;;;;;3.90;3.50;;;20.60;99.90;;;;;;5064532;28;20056;-74
2023/06/07 08:39:42;;;;;;;3.75;3.45;;;20.70;99.90;;;;;;5062358;28;20062;-74
2023/06/07 08:42:11;;;;;;;3.80;3.50;;;21.00;99.90;;;;;;5076887;28;20032;-74
2023/06/07 08:44:39;;;;;;;4.40;3.03;;;21.20;99.90;;;;;;5080931;28;20031;-73
2023/06/07 08:47:05;;;;;;;3.42;3.10;;;21.20;99.90;;;;;;5054334;28;20032;-74
2023/06/07 08:49:35;;;;;;;3.22;2.92;;;21.00;99.90;;;;;;5064851;28;20028;-74
2023/06/07 08:52:15;;;;;;;3.33;3.00;;;20.80;99.90;;;;;;5079288;28;20064;-75
2023/06/07 08:54:47;;;;;;;4.07;3.65;;;20.60;99.90;;;;;;5064834;28;20039;-75
2023/06/07 08:57:19;;;;;;;4.18;3.75;;;20.20;99.90;;;;;;5080783;28;20032;-74
2023/06/07 08:59:45;;;;;;;5.45;3.67;;;20.00;99.90;;;;;;5078740;28;20031;-75
2023/06/07 09:02:14;;;;;;;5.13;3.85;;;20.20;99.90;;;;;;5079090;28;20050;-74
2023/06/07 09:04:40;;;;;;;4.40;3.40;;;20.40;99.90;;;;;;5077832;28;20036;-74
2023/06/07 09:07:07;;;;;;;5.93;3.17;;;20.90;99.90;;;;;;5080960;28;20032;-74
2023/06/07 09:09:35;;;;;;;4.07;3.22;;;20.90;99.90;;;;;;5080109;28;20055;-74
2023/06/07 09:12:01;;;;;;;4.47;3.00;;;21.00;99.90;;;;;;5083251;28;20107;-74
2023/06/07 09:14:28;;;;;;;3.05;2.85;;;21.10;99.90;;;;;;5080962;28;20531;-74
2023/06/07 09:16:59;;;;;;;2.85;2.60;;;21.10;99.90;;;;;;5084322;28;20139;-73
2023/06/07 09:19:43;;;;;;;5.30;2.80;;;21.30;99.90;;;;;;5077481;28;20087;-73
2023/06/07 09:22:14;;;;;;;3.33;2.50;;;21.60;99.90;;;;;;5081806;28;20128;-74
2023/06/07 09:24:41;;;;;;;3.10;2.90;;;21.80;99.90;;;;;;5062650;28;20048;-75
2023/06/07 09:27:10;;;;;;;3.40;2.78;;;21.70;99.90;;;;;;5076110;28;20077;-74
2023/06/07 09:29:43;;;;;;;3.63;3.08;;;21.80;99.90;;;;;;5080115;28;20032;-75
2023/06/07 09:32:20;;;;;;;2.60;2.40;;;22.20;99.90;;;;;;5081652;28;20040;-76
2023/06/07 09:34:48;;;;;;;2.70;2.50;;;22.80;99.90;;;;;;5063666;28;20036;-74
2023/06/07 09:37:21;;;;;;;2.63;2.42;;;22.90;99.90;;;;;;5076756;28;20770;-75
2023/06/07 09:39:53;;;;;;;3.00;2.75;;;23.10;99.90;;;;;;5081803;28;20093;-74
2023/06/07 09:42:18;;;;;;;3.05;2.85;;;23.10;99.90;;;;;;5085124;28;20036;-89
2023/06/07 09:44:44;;;;;;;3.42;2.67;;;22.80;99.90;;;;;;5099267;28;20101;-90
2023/06/07 09:47:26;;;;;;;3.55;2.85;;;22.90;99.90;;;;;;5084300;28;20059;-91
2023/06/07 09:50:19;;;;;;;3.25;2.50;;;23.10;99.90;;;;;;5080860;28;20520;-90
2023/06/07 09:52:58;;;;;;;3.70;2.67;;;23.50;99.90;;;;;;5102651;28;20050;-91
2023/06/07 09:55:31;;;;;;;3.72;2.63;;;23.80;99.90;;;;;;5070905;28;20040;-90
2023/06/07 09:58:00;;;;;;;3.28;2.97;;;23.60;99.90;;;;;;5101558;28;20044;-90
2023/06/07 10:00:40;;;;;;;3.45;3.00;;;23.20;99.90;;;;;;5096688;28;20032;-89
2023/06/07 10:03:27;;;;;;;4.60;3.88;;;22.80;99.90;;;;;;5105328;28;20039;-92
2023/06/07 10:06:07;;;;;;;3.33;3.03;;;22.70;99.90;;;;;;5106299;28;20062;-92
2023/06/07 10:08:48;;;;;;;3.10;2.75;;;22.80;99.90;;;;;;5080997;28;20123;-91
2023/06/07 10:11:52;;;;;;;4.55;2.70;;;22.80;99.90;;;;;;5103326;28;20128;-90
2023/06/07 10:14:37;;;;;;;4.35;3.42;;;23.00;99.90;;;;;;5104767;28;20037;-92
2023/06/07 10:17:05;;;;;;;2.85;2.63;;;23.80;99.90;;;;;;5096975;28;20024;-89
2023/06/07 10:19:40;;;;;;;2.80;2.58;;;24.10;99.90;;;;;;5097260;28;20048;-91
2023/06/07 10:22:37;;;;;;;4.00;3.33;;;24.00;99.90;;;;;;5082453;28;20060;-91
2023/06/07 10:25:16;;;;;;;3.00;2.73;;;24.00;99.90;;;;;;5078837;28;20051;-88
2023/06/07 10:28:16;;;;;;;3.85;3.47;;;23.70;99.90;;;;;;5100624;28;20032;-85
2023/06/07 10:31:17;;;;;;;4.18;3.83;;;23.60;99.90;;;;;;5093992;28;20037;-88
2023/06/07 10:37:30;;;;;;;5.45;4.20;;;23.40;99.90;;;;;;5077621;28;20047;-90
2023/06/07 10:40:14;;;;;;;5.05;4.63;;;23.50;99.90;;;;;;5099904;28;20038;-90
2023/06/07 10:43:23;;;;;;;;;;;;;;;;;;;;;
2023/06/07 10:46:46;;;;;;;4.82;3.70;;;23.30;99.90;;;;;;5049311;28;20067;-90
2023/06/07 10:57:17;;;;;;;3.00;2.80;;;22.70;99.90;;;;;;4958590;28;20467;-74
2023/06/07 11:00:21;;;;;;;4.10;3.70;;;23.50;99.90;;;;;;4935131;28;20159;-74
2023/06/07 11:03:16;;;;;;;3.30;3.00;;;24.00;99.90;;;;;;4952188;28;20065;-72
2023/06/07 11:05:53;;;;;;;4.85;3.40;;;23.80;99.90;;;;;;4974963;28;20111;-73
2023/06/07 11:08:47;;;;;;;;;;;;;;;;;;;;;
2023/06/07 11:11:42;;;;;;;5.38;3.30;;;23.60;99.90;;;;;;5073448;28;20028;-74
2023/06/07 11:14:28;;;;;;;3.88;3.45;;;23.60;99.90;;;;;;5075903;28;20072;-74
2023/06/07 11:17:29;;;;;;;2.65;2.45;;;23.80;99.90;;;;;;5076557;28;20044;-75
2023/06/07 11:20:21;;;;;;;2.67;2.40;;;24.30;99.90;;;;;;5077958;28;20120;-75
2023/06/07 11:23:27;;;;;;;7.25;3.20;;;25.10;99.90;;;;;;5067457;28;20037;-75
2023/06/07 11:26:14;;;;;;;4.47;3.45;;;25.40;99.90;;;;;;5083110;28;20024;-75
2023/06/07 11:28:41;;;;;;;3.22;2.92;;;24.60;99.90;;;;;;5078787;28;20068;-76
2023/06/07 11:31:11;;;;;;;2.83;2.63;;;24.40;99.90;;;;;;5084013;28;20075;-75
2023/06/07 11:33:40;;;;;;;3.35;3.03;;;23.80;99.90;;;;;;5089799;28;20068;-75
2023/06/07 11:36:06;;;;;;;3.95;2.97;;;23.70;99.90;;;;;;5088756;28;20436;-75
2023/06/07 11:38:32;;;;;;;3.20;2.90;;;23.40;99.90;;;;;;5084157;28;20029;-76
2023/06/07 11:41:38;;;;;;;2.78;2.58;;;22.90;99.90;;;;;;5088187;28;20053;-76
2023/06/07 11:44:37;;;;;;;;;;;;;;;;;;;;;
2023/06/07 11:47:10;;;;;;;4.47;2.88;;;23.10;99.90;;;;;;5082626;28;20585;-75
2023/06/07 11:50:04;;;;;;;2.90;2.63;;;23.20;99.90;;;;;;5066867;28;20028;-74
2023/06/07 11:52:30;;;;;;;3.00;2.70;;;23.60;99.90;;;;;;5068916;28;20044;-75
2023/06/07 11:54:56;;;;;;;3.75;2.75;;;23.90;99.90;;;;;;5097440;28;20036;-75
2023/06/07 11:57:22;;;;;;;3.47;2.83;;;24.40;99.90;;;;;;5089654;28;20028;-71
2023/06/07 11:59:50;;;;;;;3.20;2.78;;;24.70;99.90;;;;;;5087542;28;20083;-73
2023/06/07 12:02:16;;;;;;;3.05;2.75;;;25.20;99.90;;;;;;5098668;28;20058;-88
2023/06/07 12:04:43;;;;;;;3.70;2.92;;;25.40;99.90;;;;;;5072879;28;20047;-89
2023/06/07 12:07:19;;;;;;;2.70;2.47;;;25.10;99.90;;;;;;5097157;28;20177;-87
2023/06/07 12:09:45;;;;;;;3.53;2.70;;;25.30;99.90;;;;;;5107398;28;20039;-88
2023/06/07 12:12:14;;;;;;;3.13;2.80;;;25.30;99.90;;;;;;5098649;28;20032;-88
2023/06/07 12:14:40;;;;;;;2.88;2.58;;;25.20;99.90;;;;;;5110022;28;20110;-89
2023/06/07 12:17:06;;;;;;;3.83;2.60;;;25.40;99.90;;;;;;5104979;28;20035;-94
2023/06/07 12:19:32;;;;;;;2.80;2.50;;;25.80;99.90;;;;;;5104973;28;20035;-89
2023/06/07 12:22:03;;;;;;;2.80;2.50;;;25.70;99.90;;;;;;5107780;28;20048;-88
2023/06/07 12:24:29;;;;;;;4.45;3.13;;;25.90;99.90;;;;;;5094878;28;20044;-89
2023/06/07 12:26:56;;;;;;;3.25;2.70;;;26.00;99.90;;;;;;5084255;28;20031;-89
2023/06/07 12:29:29;;;;;;;3.53;2.33;;;26.40;99.90;;;;;;5108623;28;20043;-86
2023/06/07 12:31:56;;;;;;;3.28;2.60;;;26.20;99.90;;;;;;5090566;28;20059;-89
2023/06/07 12:34:27;;;;;;;2.85;2.47;;;26.50;99.90;;;;;;5107166;28;20032;-86
2023/06/07 12:36:53;;;;;;;6.68;3.63;;;26.30;99.90;;;;;;5087075;28;20040;-87
2023/06/07 12:39:25;;;;;;;2.58;2.33;;;26.80;99.90;;;;;;5098911;28;20028;-87
2023/06/07 12:41:50;;;;;;;2.80;2.50;;;26.50;99.90;;;;;;5098779;28;20033;-86
2023/06/07 12:44:19;;;;;;;5.82;3.08;;;26.70;99.90;;;;;;5108884;28;20051;-87
2023/06/07 12:46:47;;;;;;;3.35;2.65;;;26.60;99.90;;;;;;5109362;28;20407;-86
2023/06/07 12:49:13;;;;;;;2.80;2.55;;;26.40;99.90;;;;;;5106349;28;20032;-87
2023/06/07 12:51:39;;;;;;;4.25;2.60;;;26.10;99.90;;;;;;5106419;28;20035;-87
2023/06/07 12:54:04;;;;;;;3.50;2.70;;;26.50;99.90;;;;;;5103660;28;20128;-87
2023/06/07 12:56:30;;;;;;;3.58;2.92;;;26.00;99.90;;;;;;5093982;28;20032;-85
2023/06/07 12:58:56;;;;;;;3.25;2.95;;;24.90;99.90;;;;;;5104014;28;20033;-86
2023/06/07 13:01:22;;;;;;;3.00;2.80;;;24.70;99.90;;;;;;5098999;28;20044;-86
2023/06/07 13:03:48;;;;;;;4.78;2.80;;;24.40;99.90;;;;;;5088416;28;20028;-87
2023/06/07 13:06:25;;;;;;;3.53;2.70;;;24.80;99.90;;;;;;5100319;28;20031;-86
2023/06/07 13:09:08;;;;;;;3.28;2.88;;;24.80;99.90;;;;;;5106120;28;20447;-86
2023/06/07 13:11:34;;;;;;;3.38;2.75;;;24.80;99.90;;;;;;5102272;28;20042;-76
2023/06/07 13:14:00;;;;;;;3.17;2.80;;;25.10;99.90;;;;;;5096757;28;20105;-76
2023/06/07 13:16:27;;;;;;;3.20;2.80;;;25.00;99.90;;;;;;5091878;28;20024;-74
2023/06/07 13:18:52;;;;;;;2.73;2.50;;;25.00;99.90;;;;;;5097091;28;20020;-75
2023/06/07 13:21:18;;;;;;;3.38;3.08;;;25.90;99.90;;;;;;5098797;28;20092;-75
2023/06/07 13:23:44;;;;;;;4.45;3.10;;;26.30;99.90;;;;;;5091630;28;20049;-75
2023/06/07 13:26:10;;;;;;;5.57;3.60;;;26.60;99.90;;;;;;5100583;28;20075;-75
2023/06/07 13:28:35;;;;;;;3.63;3.15;;;26.70;99.90;;;;;;5092150;28;20032;-74
2023/06/07 13:31:01;;;;;;;3.08;2.78;;;26.00;99.90;;;;;;5100416;28;20040;-74
2023/06/07 13:33:27;;;;;;;4.18;3.83;;;25.40;99.90;;;;;;5095231;28;20089;-74
2023/06/07 13:35:52;;;;;;;3.30;3.00;;;25.20;99.90;;;;;;5091055;28;20024;-74
2023/06/07 13:38:18;;;;;;;3.67;3.38;;;24.50;99.90;;;;;;5093917;28;20759;-74
2023/06/07 13:40:44;;;;;;;3.00;2.70;;;24.70;99.90;;;;;;5083835;28;20021;-75
2023/06/07 13:43:09;;;;;;;2.80;2.60;;;24.90;99.90;;;;;;5091099;28;20463;-74
2023/06/07 13:45:35;;;;;;;2.83;2.53;;;25.60;99.90;;;;;;5094507;28;20050;-75
2023/06/07 13:48:01;;;;;;;3.15;2.67;;;26.30;99.90;;;;;;5075119;28;20024;-75
2023/06/07 13:50:29;;;;;;;3.10;2.80;;;26.10;99.90;;;;;;5100610;28;20035;-74
2023/06/07 13:52:54;;;;;;;;;;;26.40;99.90;;;;;;5096994;28;20092;-75
2023/06/07 13:55:20;;;;;;;3.20;2.70;;;26.10;99.90;;;;;;5074875;28;19939;-75
2023/06/07 13:57:46;;;;;;;2.97;2.67;;;25.70;99.90;;;;;;5074695;28;20035;-75
2023/06/07 14:00:12;;;;;;;6.60;3.40;;;25.10;99.90;;;;;;5095803;28;20032;-75
2023/06/07 14:02:38;;;;;;;4.63;2.70;;;25.00;99.90;;;;;;5095306;28;20032;-75
2023/06/07 14:05:04;;;;;;;3.20;2.90;;;25.50;99.90;;;;;;5095468;28;20028;-76
2023/06/07 14:07:29;;;;;;;4.13;2.83;;;26.30;99.90;;;;;;5100730;28;20035;-75
2023/06/07 14:09:55;;;;;;;3.10;2.78;;;26.50;99.90;;;;;;5092081;28;20028;-76
2023/06/07 14:12:21;;;;;;;3.45;3.00;;;26.20;99.90;;;;;;5096484;28;20032;-76
2023/06/07 14:14:46;;;;;;;3.20;2.78;;;26.60;99.90;;;;;;5094262;28;20639;-76
2023/06/07 14:17:12;;;;;;;3.80;3.50;;;26.50;99.90;;;;;;5080421;28;20060;-74
2023/06/07 14:19:39;;;;;;;3.65;3.30;;;25.80;99.90;;;;;;5099362;28;20035;-75
2023/06/07 14:22:05;;;;;;;3.05;2.83;;;25.60;99.90;;;;;;5100862;28;20051;-80
2023/06/07 14:24:30;;;;;;;3.75;3.30;;;25.40;99.90;;;;;;5105022;28;20806;-79
2023/06/07 14:27:00;;;;;;;3.63;3.30;;;25.00;99.90;;;;;;5100424;28;20025;-80
2023/06/07 14:29:25;;;;;;;4.45;3.72;;;25.10;99.90;;;;;;5096724;28;20033;-79
2023/06/07 14:31:51;;;;;;;4.28;3.97;;;24.70;99.90;;;;;;5102577;28;20040;-80
2023/06/07 14:34:19;;;;;;;4.15;3.80;;;24.30;99.90;;;;;;5099510;28;20055;-81
2023/06/07 14:36:45;;;;;;;5.07;4.25;;;24.10;99.90;;;;;;5097178;28;20028;-80
2023/06/07 14:39:11;;;;;;;5.80;3.17;;;24.10;99.90;;;;;;5095738;28;20058;-80
2023/06/07 14:41:37;;;;;;;3.58;3.28;;;24.10;99.90;;;;;;5094791;28;20044;-80